Binfield, United Kingdom
Current Conditions -  °F | °C
As of 9:20 AM on Thursday 23 Oct 2014 (Local Time) from EGLF Reporting Station
Scattered Clouds Scattered Clouds  
Wind Chill: 55°   Ceiling: Unl
Heat Index: 55°   Visibility: 6mi
Dew Point: 48°   Wind: 12mph
Humidity: 77%   Direction: 220°SW
Pressure: 30.15"   Gusts: NA
Location:  51.42°N, 0.78°W
Report Text: EGLF 230820Z 22010KT 9999 FEW018 SCT035 13/09 Q1021
Loading
Personal Weather Stations






























Interactive Weather Map
Tropical Storm Tracking
New forecast layout! Learn more

10-Day Weather Forecast

Advertisements
Track Severe Weather on mobile